Time;durP1;ratioP1;P1;durP2;ratioP2;P2;SDS_P1;SDS_P2;PMS_P1;PMS_P2;Temp;Humidity;BMP_temperature;BMP_pressure;BME280_temperature;BME280_humidity;BME280_pressure;Samples;Min_cycle;Max_cycle;Signal;HPM_P1;HPM_P2
2021/12/15 00:00:41;;;;;;;10.80;5.83;;;;;;;1.48;100.00;142634.47;1834977;77;22136;-55
2021/12/15 00:03:19;;;;;;;11.30;6.80;;;;;;;1.47;100.00;142633.17;1837785;77;38765;-55
2021/12/15 00:06:18;;;;;;;13.68;7.00;;;;;;;1.48;100.00;142635.69;1834853;77;22141;-55
2021/12/15 00:08:56;;;;;;;13.58;7.45;;;;;;;1.43;100.00;142623.25;1835106;77;22156;-56
2021/12/15 00:11:37;;;;;;;11.30;6.90;;;;;;;1.35;100.00;142602.06;1835014;77;22567;-54
2021/12/15 00:14:19;;;;;;;15.03;6.55;;;;;;;1.31;100.00;142593.38;1834924;77;22156;-56
2021/12/15 00:16:55;;;;;;;9.78;5.50;;;;;;;1.30;100.00;142592.14;1853559;77;22160;-57
2021/12/15 00:19:30;;;;;;;8.55;5.00;;;;;;;1.25;100.00;142578.47;1834998;77;22563;-55
2021/12/15 00:22:25;;;;;;;12.75;6.70;;;;;;;1.19;100.00;142564.73;1834824;77;22193;-55
2021/12/15 00:25:01;;;;;;;11.60;7.22;;;;;;;1.16;100.00;142556.05;1785403;79;28512;-54
2021/12/15 00:27:56;;;;;;;11.68;6.95;;;;;;;1.25;100.00;142578.47;1835025;77;22199;-54
2021/12/15 00:30:32;;;;;;;10.30;5.80;;;;;;;1.26;100.00;142580.92;1835019;77;20207;-56
2021/12/15 00:33:26;;;;;;;14.18;6.92;;;;;;;1.27;100.00;142583.41;1834982;77;22165;-56
2021/12/15 00:36:20;;;;;;;13.45;6.78;;;;;;;1.23;100.00;142574.70;1853533;77;22230;-54
2021/12/15 00:38:55;;;;;;;10.08;5.85;;;;;;;1.19;100.00;142564.73;1835039;77;22559;-55
2021/12/15 00:41:30;;;;;;;10.05;6.05;;;;;;;1.13;100.00;142548.59;1853551;77;22127;-58
2021/12/15 00:44:07;;;;;;;11.73;7.10;;;;;;;1.05;100.00;142531.16;1853534;77;22172;-54
2021/12/15 00:46:43;;;;;;;15.43;7.42;;;;;;;0.96;100.00;142508.75;1835018;77;22128;-55
2021/12/15 00:49:21;;;;;;;13.25;7.22;;;;;;;0.92;100.00;142497.59;1835041;77;20448;-55
2021/12/15 00:51:55;;;;;;;13.85;7.65;;;;;;;0.90;100.00;142492.61;1835205;77;20468;-53
2021/12/15 00:54:30;;;;;;;15.95;9.43;;;;;;;0.87;100.00;142486.39;1819444;77;28434;-53
2021/12/15 00:57:24;;;;;;;14.80;8.20;;;;;;;0.96;100.00;142507.52;1834982;77;22140;-55
2021/12/15 01:00:00;;;;;;;12.53;7.05;;;;;;;0.95;100.00;142506.28;1853597;77;22132;-57
2021/12/15 01:02:36;;;;;;;16.20;8.33;;;;;;;0.95;100.00;142506.28;1835018;77;20211;-57
2021/12/15 01:05:14;;;;;;;13.60;8.40;;;;;;;0.92;100.00;142497.59;1819394;77;28395;-57
2021/12/15 01:08:12;;;;;;;14.70;7.60;;;;;;;0.96;100.00;142507.52;1835005;77;22567;-55
2021/12/15 01:11:31;;;;;;;23.25;10.80;;;;;;;0.99;100.00;142514.97;1835252;77;22136;-55
2021/12/15 01:20:38;;;;;;;19.65;10.03;;;;;;;0.95;100.00;142506.28;1853589;77;22156;-56
2021/12/15 01:23:32;;;;;;;18.27;10.30;;;;;;;0.81;100.00;142471.44;1835066;77;22157;-53
2021/12/15 01:26:26;;;;;;;15.70;9.78;;;;;;;0.80;100.00;142468.97;1819425;77;28505;-56
2021/12/15 01:29:20;;;;;;;18.07;10.05;;;;;;;0.79;100.00;142466.45;1834877;77;22128;-56
2021/12/15 01:31:55;;;;;;;15.80;8.98;;;;;;;0.78;100.00;142465.22;1835002;77;22153;-54
2021/12/15 01:34:31;;;;;;;15.50;8.90;;;;;;;0.76;100.00;142459.00;1835011;77;22574;-55
2021/12/15 01:37:08;;;;;;;15.30;7.28;;;;;;;0.73;100.00;142451.53;1834852;77;22569;-55
2021/12/15 01:40:06;;;;;;;10.43;6.15;;;;;;;0.73;100.00;142451.53;1853555;77;22171;-54
2021/12/15 01:43:16;;;;;;;12.60;7.50;;;;;;;0.73;100.00;142451.53;1834927;77;22179;-52
2021/12/15 01:49:18;;;;;;;12.23;6.45;;;;;;;0.71;100.00;142446.56;1835029;77;22128;-53
2021/12/15 01:52:28;;;;;;;13.85;7.72;;;;;;;0.69;100.00;142441.58;1853562;77;22185;-53
2021/12/15 01:55:17;;;;;;;10.80;6.92;;;;;;;0.70;100.00;142444.09;1835016;77;22124;-54
2021/12/15 01:57:53;;;;;;;13.22;7.50;;;;;;;0.67;100.00;142436.64;1853655;77;22155;-55
2021/12/15 02:00:53;;;;;;;14.70;7.22;;;;;;;0.65;100.00;142432.89;1835057;77;22128;-54
2021/12/15 02:03:48;;;;;;;13.40;7.78;;;;;;;0.62;100.00;142425.44;1853552;77;22175;-53
2021/12/15 02:06:44;;;;;;;15.35;8.45;;;;;;;0.67;100.00;142436.64;1834964;77;22132;-53
2021/12/15 02:09:45;;;;;;;14.25;8.00;;;;;;;0.72;100.00;142449.08;1853578;77;22132;-57
2021/12/15 02:12:27;;;;;;;13.65;7.80;;;;;;;0.75;100.00;142456.53;1835048;77;22153;-54
2021/12/15 02:15:27;;;;;;;13.03;8.53;;;;;;;0.67;100.00;142437.87;1834841;77;22120;-54
2021/12/15 02:18:28;;;;;;;17.37;9.08;;;;;;;0.66;100.00;142435.36;1834928;77;22185;-54
2021/12/15 02:21:25;;;;;;;12.98;7.15;;;;;;;0.62;100.00;142426.67;1834904;77;22153;-55
2021/12/15 02:24:22;;;;;;;16.52;9.18;;;;;;;0.56;100.00;142411.77;1853404;77;22174;-54
2021/12/15 02:27:00;;;;;;;14.75;8.40;;;;;;;0.52;100.00;142401.80;1834805;77;22598;-54
2021/12/15 02:29:40;;;;;;;16.90;8.75;;;;;;;0.51;100.00;142399.33;1853512;77;22147;-55
2021/12/15 02:32:38;;;;;;;14.43;7.90;;;;;;;0.51;100.00;142399.33;1835004;77;22125;-56
2021/12/15 02:38:32;;;;;;;13.32;8.28;;;;;;;0.63;100.00;142429.14;1853526;77;22121;-56
2021/12/15 02:44:12;;;;;;;14.00;8.38;;;;;;;0.74;100.00;142455.30;1841336;77;22215;-57
2021/12/15 02:46:50;;;;;;;13.83;8.85;;;;;;;0.79;100.00;142466.45;1834976;77;22152;-55
2021/12/15 02:49:45;;;;;;;15.15;8.93;;;;;;;0.77;100.00;142461.52;1853555;77;22542;-54
2021/12/15 02:52:21;;;;;;;14.73;8.58;;;;;;;0.76;100.00;142459.00;1834967;77;22136;-56
2021/12/15 02:55:16;;;;;;;14.68;8.78;;;;;;;0.77;100.00;142461.52;1853546;77;22183;-55
2021/12/15 02:57:52;;;;;;;16.62;9.70;;;;;;;0.79;100.00;142466.45;1819398;77;27981;-57
2021/12/15 03:00:59;;;;;;;17.87;9.85;;;;;;;0.86;100.00;142485.11;1834986;77;22157;-58
2021/12/15 03:06:32;;;;;;;19.85;11.85;;;;;;;0.85;100.00;142481.41;1834988;77;22622;-57
2021/12/15 03:15:29;;;;;;;14.93;8.58;;;;;;;0.88;100.00;142488.86;1834928;77;22185;-57
2021/12/15 03:18:17;;;;;;;13.68;7.60;;;;;;;0.84;100.00;142478.89;1834769;77;22145;-57
2021/12/15 03:21:10;;;;;;;14.18;7.55;;;;;;;0.76;100.00;142460.23;1835025;77;22168;-57
2021/12/15 03:23:55;;;;;;;12.23;7.28;;;;;;;0.71;100.00;142446.56;1835034;77;22129;-58
2021/12/15 03:27:02;;;;;;;13.95;8.23;;;;;;;0.70;100.00;142444.09;1853512;77;22602;-58
2021/12/15 03:36:05;;;;;;;14.30;8.25;;;;;;;0.62;100.00;142425.44;1834827;77;22594;-54
2021/12/15 03:38:57;;;;;;;13.13;7.22;;;;;;;0.63;100.00;142429.14;1853503;77;22148;-56
2021/12/15 03:42:04;;;;;;;11.53;6.65;;;;;;;0.61;100.00;142422.92;1843412;77;22164;-56
2021/12/15 03:45:00;;;;;;;13.85;8.03;;;;;;;0.57;100.00;142414.23;1819141;77;27996;-55
2021/12/15 03:48:00;;;;;;;15.98;9.28;;;;;;;0.60;100.00;142420.45;1834744;77;22615;-56
2021/12/15 03:50:57;;;;;;;20.57;9.88;;;;;;;0.56;100.00;142411.77;1834786;77;22137;-56
2021/12/15 03:53:51;;;;;;;22.30;12.28;;;;;;;0.52;100.00;142401.80;1853544;77;22160;-55
2021/12/15 03:56:48;;;;;;;22.82;12.18;;;;;;;0.43;100.00;142379.41;1853531;77;22156;-55
2021/12/15 03:59:24;;;;;;;24.32;13.03;;;;;;;0.38;100.00;142368.25;1853560;77;22148;-56
2021/12/15 04:02:20;;;;;;;26.42;12.90;;;;;;;0.31;100.00;142349.59;1834959;77;22183;-56
2021/12/15 04:05:17;;;;;;;18.48;9.95;;;;;;;0.32;100.00;142352.06;1834999;77;22207;-57
2021/12/15 04:07:54;;;;;;;23.02;12.07;;;;;;;0.30;100.00;142348.31;1835048;77;22161;-54
2021/12/15 04:10:36;;;;;;;24.43;13.32;;;;;;;0.30;100.00;142348.31;1834284;77;22168;-55
2021/12/15 04:13:30;;;;;;;27.90;13.25;;;;;;;0.28;100.00;142343.37;1834994;77;22157;-55
2021/12/15 04:19:13;;;;;;;25.92;12.65;;;;;;;0.29;100.00;142345.84;1834834;77;22191;-55
2021/12/15 04:21:49;;;;;;;27.32;13.08;;;;;;;0.30;100.00;142348.31;1835097;77;22623;-53
2021/12/15 04:24:43;;;;;;;24.15;12.28;;;;;;;0.28;100.00;142342.09;1853637;77;22127;-54
2021/12/15 04:27:40;;;;;;;26.87;12.82;;;;;;;0.32;100.00;142352.06;1853511;77;22610;-55
2021/12/15 04:30:16;;;;;;;22.73;12.95;;;;;;;0.36;100.00;142362.03;1853531;77;22123;-55
2021/12/15 04:32:54;;;;;;;21.25;12.30;;;;;;;0.32;100.00;142353.30;1853555;77;22156;-56
2021/12/15 04:35:49;;;;;;;24.15;14.28;;;;;;;0.34;100.00;142357.05;1817931;77;28538;-58
2021/12/15 04:38:34;;;;;;;21.42;12.40;;;;;;;0.41;100.00;142375.69;1830571;77;22223;-57
2021/12/15 04:41:29;;;;;;;20.90;12.23;;;;;;;0.44;100.00;142381.91;1818042;77;22168;-57
2021/12/15 04:44:10;;;;;;;25.95;12.85;;;;;;;0.41;100.00;142375.69;1827395;77;22172;-56
2021/12/15 04:47:00;;;;;;;19.57;12.00;;;;;;;0.40;100.00;142373.19;1805964;77;28186;-57
2021/12/15 04:49:51;;;;;;;19.95;11.38;;;;;;;0.45;100.00;142384.38;1818241;77;22218;-56
2021/12/15 04:52:30;;;;;;;21.75;12.82;;;;;;;0.40;100.00;142371.95;1801525;77;28667;-57
2021/12/15 04:55:08;;;;;;;22.30;12.33;;;;;;;0.44;100.00;142381.91;1818348;77;22140;-55
2021/12/15 04:57:45;;;;;;;20.12;10.32;;;;;;;0.40;100.00;142373.19;1834847;77;22582;-55
2021/12/15 05:00:50;;;;;;;26.07;12.20;;;;;;;0.34;100.00;142357.05;1853533;77;22139;-55
2021/12/15 05:03:46;;;;;;;17.30;9.13;;;;;;;0.36;100.00;142362.03;1853628;77;22204;-55
2021/12/15 05:06:41;;;;;;;12.75;7.70;;;;;;;0.35;100.00;142359.52;1853494;77;22163;-55
2021/12/15 05:09:23;;;;;;;23.15;10.82;;;;;;;0.33;100.00;142354.53;1834126;77;22247;-55
2021/12/15 05:12:19;;;;;;;18.27;10.65;;;;;;;0.33;100.00;142354.53;1853476;77;22179;-55
2021/12/15 05:15:14;;;;;;;21.50;12.45;;;;;;;0.34;100.00;142357.05;1819332;77;28022;-55
2021/12/15 05:18:16;;;;;;;19.95;11.53;;;;;;;0.41;100.00;142375.69;1848136;77;22275;-59
2021/12/15 05:20:53;;;;;;;19.27;10.13;;;;;;;0.42;100.00;142376.94;1853516;77;22156;-55
2021/12/15 05:23:53;;;;;;;19.95;11.48;;;;;;;0.42;100.00;142376.94;1834534;77;22160;-55
2021/12/15 05:26:26;;;;;;;20.57;9.73;;;;;;;0.36;100.00;142362.03;1834746;77;22184;-56
2021/12/15 05:29:22;;;;;;;17.42;10.82;;;;;;;0.32;100.00;142353.30;1837715;77;28009;-57
2021/12/15 05:31:59;;;;;;;13.78;8.93;;;;;;;0.39;100.00;142369.47;1819389;77;27972;-57
2021/12/15 05:34:58;;;;;;;14.50;8.55;;;;;;;0.42;100.00;142378.16;1833856;77;22310;-56
2021/12/15 05:37:56;;;;;;;12.93;7.08;;;;;;;0.38;100.00;142366.97;1853251;77;22167;-56
2021/12/15 05:40:53;;;;;;;14.15;8.05;;;;;;;0.34;100.00;142357.05;1834875;77;22144;-56
2021/12/15 05:43:28;;;;;;;16.52;9.35;;;;;;;0.32;100.00;142352.06;1853543;77;22152;-57
2021/12/15 05:46:10;;;;;;;15.40;8.38;;;;;;;0.32;100.00;142352.06;1834157;77;22205;-58
2021/12/15 05:48:45;;;;;;;17.90;10.32;;;;;;;0.37;100.00;142364.50;1853613;77;22542;-55
2021/12/15 05:51:20;;;;;;;13.45;7.03;;;;;;;0.41;100.00;142375.69;1834981;77;22128;-56
2021/12/15 05:53:57;;;;;;;13.95;7.90;;;;;;;0.41;100.00;142374.47;1834784;77;22688;-56
2021/12/15 05:56:32;;;;;;;16.80;8.93;;;;;;;0.37;100.00;142364.50;1840680;77;22194;-56
2021/12/15 05:59:09;;;;;;;16.02;7.80;;;;;;;0.30;100.00;142347.08;1853496;77;22565;-55
2021/12/15 06:01:46;;;;;;;12.85;7.78;;;;;;;0.30;100.00;142347.08;1819378;77;28017;-56
2021/12/15 06:04:40;;;;;;;13.62;7.92;;;;;;;0.36;100.00;142362.03;1819381;77;28434;-55
2021/12/15 06:07:35;;;;;;;12.45;6.58;;;;;;;0.46;100.00;142385.61;1834932;77;22156;-56
2021/12/15 06:10:15;;;;;;;14.80;8.28;;;;;;;0.44;100.00;142381.91;1819372;77;28406;-56
2021/12/15 06:13:16;;;;;;;13.80;8.00;;;;;;;0.51;100.00;142399.33;1834088;77;22623;-56
2021/12/15 06:16:10;;;;;;;11.48;6.65;;;;;;;0.51;100.00;142398.05;1853452;77;22159;-55
2021/12/15 06:19:05;;;;;;;16.87;8.55;;;;;;;0.51;100.00;142399.33;1834931;77;22555;-56
2021/12/15 06:21:40;;;;;;;18.25;10.60;;;;;;;0.49;100.00;142394.34;1819424;77;27984;-57
2021/12/15 06:24:15;;;;;;;17.80;9.98;;;;;;;0.51;100.00;142398.05;1848193;77;22152;-56
2021/12/15 06:26:51;;;;;;;19.57;10.95;;;;;;;0.49;100.00;142394.34;1853518;77;22124;-56
2021/12/15 06:29:49;;;;;;;36.68;23.10;;;;;;;0.43;100.00;142379.41;1819103;77;28428;-56
2021/12/15 06:32:44;;;;;;;35.48;20.20;;;;;;;0.46;100.00;142385.61;1834937;77;22124;-56
2021/12/15 06:35:19;;;;;;;19.67;11.95;;;;;;;0.48;100.00;142391.83;1835000;77;22153;-55
2021/12/15 06:37:54;;;;;;;13.68;8.80;;;;;;;0.45;100.00;142383.16;1834973;77;22125;-55
2021/12/15 06:40:32;;;;;;;13.95;7.60;;;;;;;0.37;100.00;142364.50;1853546;77;22168;-56
2021/12/15 06:43:27;;;;;;;12.73;7.45;;;;;;;0.35;100.00;142359.52;1837759;77;27971;-56
2021/12/15 06:58:17;;;;;;;9.55;5.67;;;;;;;0.48;100.00;142391.83;1834912;77;22165;-56
2021/12/15 07:00:57;;;;;;;9.65;5.33;;;;;;;0.43;100.00;142379.41;1834984;77;22157;-56
2021/12/15 07:03:53;;;;;;;10.78;5.55;;;;;;;0.42;100.00;142376.94;1834722;77;22185;-56
2021/12/15 07:06:29;;;;;;;9.10;5.40;;;;;;;0.43;100.00;142380.67;1834681;77;22205;-55
2021/12/15 07:09:06;;;;;;;7.85;3.40;;;;;;;0.41;100.00;142375.69;1834994;77;22124;-55
2021/12/15 07:12:03;;;;;;;6.15;3.40;;;;;;;0.46;100.00;142386.89;1834834;77;22133;-55
2021/12/15 07:14:38;;;;;;;7.17;4.12;;;;;;;0.51;100.00;142399.33;1843418;77;22160;-56
2021/12/15 07:17:22;;;;;;;7.05;4.70;;;;;;;0.58;100.00;142416.70;1834152;77;22152;-56
2021/12/15 07:23:19;;;;;;;10.20;6.47;;;;;;;0.61;100.00;142422.92;1835012;77;22129;-57
2021/12/15 07:26:13;;;;;;;9.60;6.42;;;;;;;0.63;100.00;142429.14;1853652;77;22120;-56
2021/12/15 07:28:48;;;;;;;11.95;6.60;;;;;;;0.64;100.00;142431.66;1835024;77;22546;-56
2021/12/15 07:31:23;;;;;;;11.55;7.05;;;;;;;0.63;100.00;142427.91;1834987;77;22132;-56
2021/12/15 07:34:00;;;;;;;10.90;6.85;;;;;;;0.60;100.00;142421.69;1834886;77;22554;-55
2021/12/15 07:36:35;;;;;;;12.93;7.35;;;;;;;0.56;100.00;142411.77;1835114;77;22121;-56
2021/12/15 07:39:11;;;;;;;15.40;6.30;;;;;;;0.50;100.00;142396.81;1835155;77;22242;-57
2021/12/15 07:42:03;;;;;;;7.92;4.85;;;;;;;0.47;100.00;142389.36;1853632;77;22132;-56
2021/12/15 07:44:30;;;;;;;10.65;6.83;;;;;;;0.45;100.00;142384.38;1834989;77;22136;-57
2021/12/15 07:47:24;;;;;;;8.20;4.75;;;;;;;0.50;100.00;142395.58;1834936;77;22137;-56
2021/12/15 07:50:19;;;;;;;8.43;4.80;;;;;;;0.50;98.41;142396.81;1834951;77;22140;-55
2021/12/15 07:52:55;;;;;;;9.33;4.70;;;;;;;0.54;98.69;142405.55;1834969;77;22121;-55
2021/12/15 07:55:52;;;;;;;7.97;4.90;;;;;;;0.58;97.72;142416.70;1834985;77;22543;-55
2021/12/15 07:58:29;;;;;;;11.80;5.50;;;;;;;0.62;97.22;142426.67;1834955;77;22555;-55
2021/12/15 08:01:06;;;;;;;9.73;5.58;;;;;;;0.67;97.23;142437.87;1853523;77;22581;-57
2021/12/15 08:03:50;;;;;;;13.35;7.12;;;;;;;0.70;97.37;142444.09;1835072;77;22128;-57
2021/12/15 08:06:25;;;;;;;14.63;7.08;;;;;;;0.78;97.20;142463.97;1835007;77;22133;-56
2021/12/15 08:09:20;;;;;;;7.87;4.40;;;;;;;0.81;97.05;142472.67;1834966;77;22137;-57
2021/12/15 08:11:55;;;;;;;13.43;6.37;;;;;;;0.84;96.36;142478.89;1835084;77;22125;-55
2021/12/15 08:14:39;;;;;;;11.90;6.75;;;;;;;0.93;95.78;142500.06;1853626;77;22220;-54
2021/12/15 08:17:15;;;;;;;12.45;6.70;;;;;;;1.00;95.78;142518.72;1819401;77;28492;-55
2021/12/15 08:19:51;;;;;;;10.60;5.60;;;;;;;1.15;95.32;142554.81;1834909;77;22562;-56
2021/12/15 08:22:47;;;;;;;12.18;6.78;;;;;;;1.24;94.32;142575.94;1834820;77;22216;-56
2021/12/15 08:25:24;;;;;;;10.88;5.55;;;;;;;1.32;94.42;142594.61;1813661;77;20213;-55
2021/12/15 08:28:00;;;;;;;13.32;6.47;;;;;;;1.33;92.81;142598.36;1834988;77;22128;-56
2021/12/15 08:30:37;;;;;;;16.77;9.08;;;;;;;1.22;93.10;142570.95;1819401;77;28408;-55
2021/12/15 08:33:18;;;;;;;14.03;7.53;;;;;;;1.24;93.61;142575.94;1834983;77;22598;-56
2021/12/15 08:36:09;;;;;;;13.15;7.87;;;;;;;1.25;93.62;142578.47;1834976;77;22160;-55
2021/12/15 08:39:06;;;;;;;16.12;8.20;;;;;;;1.19;94.32;142564.73;1834723;77;22598;-55
2021/12/15 08:41:42;;;;;;;14.13;7.90;;;;;;;1.15;94.55;142554.81;1853619;77;22151;-56
2021/12/15 08:44:19;;;;;;;17.17;9.75;;;;;;;1.03;95.09;142526.17;1834763;77;22583;-56
2021/12/15 08:47:14;;;;;;;13.72;7.25;;;;;;;1.00;95.72;142518.72;1853492;77;22180;-55
2021/12/15 08:49:51;;;;;;;15.32;7.58;;;;;;;1.01;95.87;142521.19;1853494;77;22156;-56
2021/12/15 08:52:26;;;;;;;12.98;7.00;;;;;;;0.97;95.65;142510.03;1819406;77;27993;-55
2021/12/15 08:55:06;;;;;;;12.05;7.45;;;;;;;0.97;95.37;142511.27;1819303;77;28000;-55
2021/12/15 08:57:47;;;;;;;11.78;6.25;;;;;;;1.08;95.38;142537.38;1835027;77;22210;-55
2021/12/15 09:00:40;;;;;;;16.42;7.12;;;;;;;1.07;94.65;142536.16;1834928;77;20210;-55
2021/12/15 09:03:21;;;;;;;9.18;4.95;;;;;;;1.08;94.90;142538.62;1834023;77;22124;-56
2021/12/15 09:06:17;;;;;;;10.53;5.03;;;;;;;1.06;94.07;142533.63;1834925;77;22574;-56
2021/12/15 09:09:14;;;;;;;12.53;6.05;;;;;;;0.92;93.40;142498.83;1834909;77;22160;-56
2021/12/15 09:11:52;;;;;;;13.75;5.83;;;;;;;0.81;93.89;142471.44;1853630;77;22152;-55
2021/12/15 09:14:46;;;;;;;10.43;6.17;;;;;;;0.76;94.30;142459.00;1819333;77;27993;-56
2021/12/15 09:17:21;;;;;;;15.43;7.37;;;;;;;0.82;94.33;142473.95;1853580;77;20205;-56
2021/12/15 09:20:20;;;;;;;14.25;6.00;;;;;;;0.82;94.47;142475.19;1853451;77;22132;-55
2021/12/15 09:22:57;;;;;;;10.58;5.87;;;;;;;0.80;94.37;142468.97;1834960;77;22587;-55
2021/12/15 09:25:32;;;;;;;7.78;3.72;;;;;;;0.73;94.48;142451.53;1834857;77;22551;-56
2021/12/15 09:28:08;;;;;;;8.05;4.10;;;;;;;0.59;94.14;142419.22;1834951;77;22156;-57
2021/12/15 09:30:46;;;;;;;9.23;5.58;;;;;;;0.52;93.94;142400.56;1827728;77;28389;-56
2021/12/15 09:33:42;;;;;;;10.63;5.15;;;;;;;0.55;94.19;142409.25;1834782;77;22543;-56
2021/12/15 09:36:19;;;;;;;9.55;5.08;;;;;;;0.56;94.42;142411.77;1834933;77;22125;-56
2021/12/15 09:39:00;;;;;;;12.20;6.83;;;;;;;0.59;94.68;142419.22;1834822;77;22177;-55
2021/12/15 09:41:36;;;;;;;7.83;4.97;;;;;;;0.58;95.06;142416.70;1835052;77;22124;-55
2021/12/15 09:44:30;;;;;;;10.88;5.35;;;;;;;0.49;95.58;142394.34;1835025;77;22535;-56
2021/12/15 09:47:19;;;;;;;9.85;6.50;;;;;;;0.40;95.68;142371.95;1819382;77;27978;-56
2021/12/15 10:02:04;;;;;;;11.22;7.12;;;;;;;0.09;95.59;142296.13;1835003;77;22152;-55
2021/12/15 10:05:16;;;;;;;11.75;6.12;;;;;;;0.05;95.44;142287.44;1834700;77;22163;-55
2021/12/15 10:19:46;;;;;;;11.22;7.00;;;;;;;0.05;94.85;142287.44;1853519;77;22189;-56
2021/12/15 10:22:45;;;;;;;8.13;5.08;;;;;;;0.12;94.34;142304.81;1835078;77;22125;-56
2021/12/15 10:25:28;;;;;;;10.08;5.78;;;;;;;0.17;94.05;142317.23;1834996;77;22120;-55
2021/12/15 10:28:21;;;;;;;8.88;5.30;;;;;;;0.17;93.92;142317.23;1834749;77;22152;-56
2021/12/15 10:31:17;;;;;;;10.68;5.50;;;;;;;0.15;93.56;142312.30;1834856;77;22562;-56
2021/12/15 10:34:13;;;;;;;9.93;4.80;;;;;;;0.09;93.41;142297.36;1834874;77;22134;-56
2021/12/15 10:37:07;;;;;;;7.33;4.55;;;;;;;0.02;93.23;142278.72;1834968;77;22140;-56
2021/12/15 10:39:48;;;;;;;10.38;5.70;;;;;;;-0.09;93.62;142252.63;1835056;77;22136;-56
2021/12/15 10:42:30;;;;;;;8.78;5.20;;;;;;;-0.09;94.02;142252.63;1834900;77;22558;-56
2021/12/15 10:45:24;;;;;;;9.10;5.72;;;;;;;0.00;94.55;142275.02;1834972;77;22160;-56
2021/12/15 10:51:23;;;;;;;11.03;6.47;;;;;;;-0.01;94.05;142272.50;1834777;77;22284;-55
2021/12/15 10:54:27;;;;;;;14.07;7.15;;;;;;;-0.04;94.45;142265.05;1834982;77;22133;-57
2021/12/15 10:57:11;;;;;;;10.60;6.33;;;;;;;-0.02;94.29;142270.03;1834767;77;22168;-55
2021/12/15 10:59:55;;;;;;;12.10;4.90;;;;;;;-0.01;94.40;142273.73;1834154;77;22177;-56
2021/12/15 11:02:32;;;;;;;10.15;5.20;;;;;;;0.01;94.34;142277.48;1853275;77;22160;-56
2021/12/15 11:05:28;;;;;;;7.78;4.78;;;;;;;-0.05;94.23;142263.81;1829305;77;22238;-55
2021/12/15 11:08:04;;;;;;;8.83;5.20;;;;;;;-0.08;94.65;142256.31;1853228;77;20300;-56
2021/12/15 11:11:00;;;;;;;8.38;5.22;;;;;;;-0.07;94.23;142257.59;1818922;77;28005;-56
2021/12/15 11:13:43;;;;;;;7.33;3.92;;;;;;;-0.08;93.31;142255.09;1842813;78;22213;-57
2021/12/15 11:16:30;;;;;;;8.33;5.20;;;;;;;-0.20;92.42;142225.25;1834646;77;22555;-55
2021/12/15 11:19:45;;;;;;;9.15;5.35;;;;;;;-0.28;92.44;142207.89;1853094;77;22175;-56
2021/12/15 11:22:34;;;;;;;9.05;5.50;;;;;;;-0.28;92.63;142206.63;1853163;77;22128;-56
2021/12/15 11:25:29;;;;;;;8.68;4.95;;;;;;;-0.25;92.48;142215.34;1833778;77;22182;-54
2021/12/15 11:28:40;;;;;;;9.80;5.72;;;;;;;-0.20;92.56;142225.25;1818931;77;27992;-54
2021/12/15 11:31:34;;;;;;;8.35;4.20;;;;;;;-0.16;91.79;142235.22;1834613;77;22133;-54
2021/12/15 11:34:21;;;;;;;4.83;3.20;;;;;;;-0.35;91.60;142190.50;1834636;77;22134;-54
2021/12/15 11:36:57;;;;;;;6.10;3.92;;;;;;;-0.41;91.89;142174.31;1819084;77;28021;-55
2021/12/15 11:39:40;;;;;;;7.50;4.17;;;;;;;-0.31;92.19;142200.41;1853162;77;22164;-54
2021/12/15 11:42:43;;;;;;;8.25;3.50;;;;;;;-0.28;92.10;142207.89;1834640;77;22128;-55
2021/12/15 11:45:18;;;;;;;6.83;4.17;;;;;;;-0.26;92.41;142212.83;1853249;77;22120;-56
2021/12/15 11:48:21;;;;;;;6.75;4.55;;;;;;;-0.28;92.83;142207.89;1834501;77;22180;-54
2021/12/15 11:51:02;;;;;;;8.98;3.70;;;;;;;-0.20;93.12;142225.25;1852922;77;22251;-55
2021/12/15 11:53:56;;;;;;;5.85;3.50;;;;;;;-0.29;93.20;142205.38;1834559;77;22160;-55
2021/12/15 11:57:05;;;;;;;6.37;3.80;;;;;;;-0.34;93.63;142192.95;1834715;77;22153;-54
2021/12/15 11:59:44;;;;;;;7.40;4.28;;;;;;;-0.38;93.94;142183.05;1834582;77;22247;-55
2021/12/15 12:02:47;;;;;;;8.90;5.03;;;;;;;-0.36;94.57;142186.75;1853184;77;22216;-54
2021/12/15 12:05:49;;;;;;;7.33;3.67;;;;;;;-0.33;94.83;142194.19;1853047;77;22257;-54
2021/12/15 12:08:51;;;;;;;6.92;3.85;;;;;;;-0.38;94.91;142183.05;1833871;77;22191;-55
2021/12/15 12:11:54;;;;;;;7.92;4.53;;;;;;;-0.35;95.24;142189.25;1853095;77;22626;-55
2021/12/15 12:14:41;;;;;;;7.60;4.05;;;;;;;-0.36;95.43;142186.75;1853196;77;22171;-54
2021/12/15 12:17:28;;;;;;;11.15;4.97;;;;;;;-0.35;95.64;142189.25;1830517;77;28400;-54
2021/12/15 12:20:13;;;;;;;8.75;4.37;;;;;;;-0.25;95.86;142214.11;1816631;77;22199;-55
2021/12/15 12:22:50;;;;;;;8.65;5.03;;;;;;;-0.23;96.01;142220.33;1818237;77;22177;-55
2021/12/15 12:25:36;;;;;;;9.98;5.40;;;;;;;-0.29;96.29;142205.38;1821627;77;22160;-54
2021/12/15 12:28:15;;;;;;;11.22;5.10;;;;;;;-0.33;96.67;142195.47;1829881;77;22144;-55
2021/12/15 12:31:29;;;;;;;9.53;5.22;;;;;;;-0.32;97.01;142196.70;1821781;77;22263;-56
2021/12/15 12:34:04;;;;;;;9.00;5.50;;;;;;;-0.36;97.15;142187.97;1820062;77;22140;-56
2021/12/15 12:36:43;;;;;;;10.25;5.62;;;;;;;-0.31;97.53;142199.17;1784115;79;22160;-54
2021/12/15 12:39:40;;;;;;;9.53;6.08;;;;;;;-0.19;97.61;142229.00;1809316;78;28131;-54
2021/12/15 12:42:32;;;;;;;12.37;5.72;;;;;;;-0.07;97.45;142257.59;1815418;77;22227;-54
2021/12/15 12:45:35;;;;;;;13.10;5.50;;;;;;;-0.05;97.38;142262.53;1832996;77;22188;-55
2021/12/15 13:00:36;;;;;;;15.90;7.90;;;;;;;-0.08;98.21;142256.31;1820107;77;22147;-55
2021/12/15 13:03:38;;;;;;;12.28;7.78;;;;;;;-0.09;98.53;142252.63;1819340;77;22227;-55
2021/12/15 13:06:27;;;;;;;13.93;8.18;;;;;;;-0.14;99.11;142240.19;1801759;77;27995;-55
2021/12/15 13:09:10;;;;;;;10.90;7.00;;;;;;;-0.14;99.65;142240.19;1810323;77;22177;-55
2021/12/15 13:11:50;;;;;;;12.28;7.20;;;;;;;-0.13;100.00;142242.66;1810201;77;22163;-55
2021/12/15 13:14:37;;;;;;;13.20;6.97;;;;;;;-0.07;100.00;142257.59;1822802;77;22195;-55
2021/12/15 13:17:36;;;;;;;14.35;7.35;;;;;;;-0.07;100.00;142257.59;1853354;77;22158;-55
2021/12/15 13:20:36;;;;;;;13.08;6.97;;;;;;;-0.10;100.00;142251.39;1834758;77;22265;-55
2021/12/15 13:23:45;;;;;;;10.32;6.90;;;;;;;-0.16;100.00;142235.22;1834569;77;22590;-55
2021/12/15 13:29:53;;;;;;;10.20;5.42;;;;;;;-0.20;100.00;142225.25;1828187;77;22163;-56
2021/12/15 13:32:38;;;;;;;12.65;6.50;;;;;;;-0.19;100.00;142229.00;1814358;77;22169;-56
2021/12/15 13:35:25;;;;;;;11.50;5.87;;;;;;;-0.14;100.00;142240.19;1814619;77;22179;-56
2021/12/15 13:38:02;;;;;;;7.65;5.12;;;;;;;-0.17;100.00;142232.75;1818326;77;22583;-54
2021/12/15 13:41:25;;;;;;;13.95;6.67;;;;;;;-0.22;100.00;142222.78;1819619;77;22240;-55
2021/12/15 13:44:35;;;;;;;15.03;6.70;;;;;;;-0.22;100.00;142222.78;1834517;77;22161;-55
2021/12/15 13:47:21;;;;;;;13.35;7.92;;;;;;;-0.20;100.00;142225.25;1834535;77;22151;-55
2021/12/15 13:50:20;;;;;;;12.95;7.55;;;;;;;-0.24;100.00;142217.81;1811064;77;22188;-54
2021/12/15 13:53:33;;;;;;;15.48;7.80;;;;;;;-0.22;100.00;142221.55;1853453;77;22188;-54
2021/12/15 13:56:48;;;;;;;9.88;6.05;;;;;;;-0.17;100.00;142232.75;1818898;77;22195;-56
2021/12/15 14:00:03;;;;;;;12.00;6.90;;;;;;;-0.19;100.00;142227.77;1820862;77;22254;-55
2021/12/15 14:03:28;;;;;;;19.52;9.03;;;;;;;-0.18;100.00;142231.47;1829511;77;22175;-55
2021/12/15 14:06:18;;;;;;;17.52;9.08;;;;;;;-0.11;100.00;142248.87;1812110;77;22222;-55
2021/12/15 14:09:10;;;;;;;17.07;9.85;;;;;;;-0.05;100.00;142262.53;1802713;77;28598;-54
2021/12/15 14:11:51;;;;;;;13.10;8.33;;;;;;;-0.01;100.00;142272.50;1816139;77;22200;-54
2021/12/15 14:14:46;;;;;;;13.05;7.40;;;;;;;-0.07;100.00;142258.84;1795219;79;22175;-55
2021/12/15 14:17:21;;;;;;;13.80;7.97;;;;;;;-0.14;100.00;142241.44;1816188;77;22199;-55
2021/12/15 14:19:56;;;;;;;17.87;8.78;;;;;;;-0.20;100.00;142225.25;1831351;77;22306;-55
2021/12/15 14:22:59;;;;;;;13.75;8.13;;;;;;;-0.14;100.00;142240.19;1834112;77;22203;-54
2021/12/15 14:25:37;;;;;;;15.43;8.88;;;;;;;-0.08;100.00;142255.09;1827577;77;22610;-54